• Join FlightAware (Why Join?)
  • Login
  • US Flag 
11:31PM EDT


 

Airport Tracker/Info


-or-


 

Live Flight TrackerFlight Track Log ✈ N3726K ✈ 23-Sep-2013 ✈ KMLI - KSTP

Flight Track Log - Related Links

Times and Time Zones

All times are in EDT time to prevent confusion due to time zone crossing. See the N3726K flight status page for this flight to view local times or setup timezone preferences in your user account.

Time Position Orientation Groundspeed Altitude Reporting Facility
EDT Latitude Longitude Course Direction KTS MPH feet Rate Location/Type
09:29PM 41.4900 -90.4764 333° Northwest 136 157 3,400  Level Chicago Center
09:30PM 41.5267 -90.5033 331° Northwest 145 167 4,300 840 Climbing Chicago Center
09:31PM 41.5639 -90.5353 327° Northwest 152 175 5,200 720 Climbing Chicago Center
09:32PM 41.6006 -90.5614 332° Northwest 152 175 5,900 300 Climbing Chicago Center
09:33PM 41.8008 -90.7510 332° Northwest  Level Estimated
09:33PM 41.6456 -90.5936 332° Northwest 175 201 5,900  Level Chicago Center
09:34PM 41.8448 -90.7817 333° Northwest  Level FlightAware Approximate
09:34PM 41.7025 -90.6322 333° Northwest 193 222 5,900  Level Chicago Center
09:35PM 41.7536 -90.6661 334° Northwest 203 234 5,900  Level Chicago Center
09:36PM 41.8033 -90.7019 332° Northwest 205 236 5,900  Level Chicago Center
09:37PM 41.8531 -90.7389 331° Northwest 206 237 5,900  Level Chicago Center
09:38PM 41.9039 -90.7739 333° Northwest 207 238 5,900  Level Chicago Center
09:39PM 41.9639 -90.8169 332° Northwest 205 236 5,900  Level Chicago Center
09:40PM 42.0133 -90.8544 331° Northwest 205 236 5,900  Level Chicago Center
09:41PM 42.0650 -90.8892 333° Northwest 208 239 5,900  Level Chicago Center
09:42PM 42.1150 -90.9253 332° Northwest 206 237 5,900  Level Chicago Center
09:43PM 42.1653 -90.9614 332° Northwest 206 237 5,900  Level Chicago Center
09:44PM 42.2158 -90.9969 332° Northwest 206 237 5,900  Level Chicago Center
09:45PM 42.2764 -91.0408 332° Northwest 208 239 5,900  Level Chicago Center
09:46PM 42.3258 -91.0764 332° Northwest 205 236 5,900  Level Chicago Center
09:47PM 42.3753 -91.1133 331° Northwest 205 236 5,900  Level Chicago Center
09:48PM 42.4258 -91.1489 333° Northwest 205 236 5,900  Level Chicago Center
09:49PM 42.4750 -91.1844 332° Northwest 203 234 5,900  Level Chicago Center
09:50PM 42.5344 -91.2292 331° Northwest 206 237 5,900  Level Chicago Center
09:51PM 42.5836 -91.2644 332° Northwest 205 236 5,900  Level Chicago Center
09:52PM 42.6333 -91.3003 332° Northwest 204 235 5,900  Level Chicago Center
09:53PM 42.6828 -91.3369 331° Northwest 204 235 6,000  Climbing Chicago Center
09:54PM 42.7314 -91.3728 332° Northwest 204 235 6,000  Level Chicago Center
09:55PM 42.7908 -91.4172 331° Northwest 205 236 6,000  Level Chicago Center
09:56PM 42.8394 -91.4531 332° Northwest 204 235 6,000  Level Chicago Center
09:57PM 42.8883 -91.4894 331° Northwest 204 235 6,000  Level Chicago Center
09:58PM 42.9372 -91.5256 332° Northwest 204 235 6,000  Level Chicago Center
09:59PM 42.9869 -91.5619 332° Northwest 205 236 6,000  Level Chicago Center
10:00PM 43.0456 -91.6064 331° Northwest 204 235 6,000  Level Chicago Center
10:01PM 43.0942 -91.6425 332° Northwest 202 232 6,000  Level Chicago Center
10:02PM 43.1250 -91.6628 334° Northwest 204 235 6,000  Level Minneapolis Center
10:03PM 43.1747 -91.7000 331° Northwest 205 236 6,000  Level Minneapolis Center
10:04PM 43.2231 -91.7369 331° Northwest 203 234 6,000  Level Minneapolis Center
10:06PM 43.3258 -91.8139 331° Northwest 204 235 6,000  Level Minneapolis Center
10:07PM 43.3753 -91.8506 332° Northwest 204 235 6,000  Level Minneapolis Center
10:08PM 43.4283 -91.8911 331° Northwest 205 236 6,000  Level Minneapolis Center
10:09PM 43.4775 -91.9283 331° Northwest 204 235 6,000  Level Minneapolis Center
10:10PM 43.5267 -91.9656 331° Northwest 204 235 6,000  Level Minneapolis Center
10:11PM 43.5800 -92.0058 331° Northwest 203 234 6,000  Level Minneapolis Center
10:12PM 43.6297 -92.0439 331° Northwest 206 237 6,000  Level Minneapolis Center
10:13PM 43.6797 -92.0817 331° Northwest 208 239 6,000  Level Minneapolis Center
10:14PM 43.7325 -92.1219 331° Northwest 204 235 6,000  Level Minneapolis Center
10:15PM 43.7817 -92.1594 331° Northwest 203 234 6,000  Level Minneapolis Center
10:16PM 43.8317 -92.1983 331° Northwest 207 238 6,000  Level Minneapolis Center
10:17PM 43.8853 -92.2389 331° Northwest 207 238 6,000  Level Minneapolis Center
10:18PM 43.9350 -92.2767 331° Northwest 206 237 6,000  Level Minneapolis Center
10:19PM 43.9881 -92.3194 330° Northwest 205 236 6,000  Level Minneapolis Center
10:20PM 44.0381 -92.3564 332° Northwest 206 237 6,000  Level Minneapolis Center
10:21PM 44.0869 -92.3950 330° Northwest 206 237 6,000  Level Minneapolis Center
10:22PM 44.1408 -92.4361 331° Northwest 207 238 6,000  Level Minneapolis Center
10:23PM 44.1900 -92.4747 331° Northwest 207 238 6,000  Level Minneapolis Center
10:24PM 44.2400 -92.5128 331° Northwest 210 242 6,000  Level Minneapolis Center
10:25PM 44.2931 -92.5547 330° Northwest 204 235 6,000  Level Minneapolis Center
10:26PM 44.3425 -92.5925 331° Northwest 204 235 6,000  Level Minneapolis Center
10:27PM 44.3867 -92.6267 331° Northwest 204 235 6,000  Level Minneapolis Center
10:28PM 44.4356 -92.6664 330° Northwest 207 238 6,000 -180 Level Minneapolis Center
10:29PM 44.4944 -92.7117 331° Northwest 202 232 5,700 -420 Descending Minneapolis Center
10:31PM 44.5464 -92.7522 331° Northwest 212 244 5,200 -540 Descending Minneapolis Center
10:32PM 44.5953 -92.7911 330° Northwest 205 236 4,700 -540 Descending Minneapolis Center
10:33PM 44.6428 -92.8283 331° Northwest 197 227 4,200 -360 Descending Minneapolis Center
10:34PM 44.6933 -92.8686 330° Northwest 208 239 4,000 -300 Descending Minneapolis Center
10:35PM 44.7422 -92.9075 331° Northwest 205 236 3,600 -540 Descending Minneapolis Center
10:36PM 44.7925 -92.9469 331° Northwest 209 241 3,000 -540 Descending Minneapolis Center
10:37PM 44.8467 -92.9744 340° North 212 244 2,500 -300 Descending Minneapolis Center
10:38PM 44.8975 -92.9956 344° North 193 222 2,500 -300 Level Minneapolis Center
10:39PM 44.9531 -93.0242 340° North 179 206 2,000 -540 Descending Minneapolis Center
10:40PM 44.9650 -93.0667 292° West 140 161 1,500 -540 Descending Minneapolis Center
10:41PM 44.9447 -93.0717 190° South 116 133 1,000 -540 Descending Minneapolis Center
10:43PM 44.9333 -93.0500 90° East  Level FlightAware Approximate